Time;durP1;ratioP1;P1;durP2;ratioP2;P2;SDS_P1;SDS_P2;PMS_P1;PMS_P2;Temp;Humidity;BMP_temperature;BMP_pressure;BME280_temperature;BME280_humidity;BME280_pressure;Samples;Min_cycle;Max_cycle;Signal;HPM_P1;HPM_P2
2022/11/12 00:00:55;;;;;;;1.97;0.87;;;16.10;99.90;;;16.98;54.87;102753.22;4911338;28;107313;-52
2022/11/12 00:03:21;;;;;;;1.57;0.70;;;16.10;99.90;;;16.91;54.97;102756.97;4909759;28;97602;-54
2022/11/12 00:05:48;;;;;;;0.93;0.73;;;15.90;99.90;;;16.90;55.21;102745.44;4909859;28;97318;-48
2022/11/12 00:08:14;;;;;;;2.40;1.17;;;15.90;99.90;;;16.87;54.98;102750.84;4913959;28;97385;-54
2022/11/12 00:10:40;;;;;;;0.83;0.60;;;15.90;99.90;;;16.82;55.40;102749.25;4911577;28;97663;-53
2022/11/12 00:13:06;;;;;;;1.20;0.87;;;15.70;99.90;;;16.83;55.22;102749.22;4914301;28;116389;-51
2022/11/12 00:15:32;;;;;;;1.20;0.73;;;15.80;99.90;;;16.85;55.25;102746.50;4907891;28;96981;-52
2022/11/12 00:17:57;;;;;;;2.00;0.83;;;15.90;99.90;;;16.84;55.10;102747.41;4914674;28;97404;-51
2022/11/12 00:20:23;;;;;;;1.17;0.87;;;15.90;99.90;;;16.87;55.05;102756.19;4912754;28;97551;-53
2022/11/12 00:22:49;;;;;;;1.73;0.90;;;16.00;99.90;;;16.90;54.90;102749.88;4910465;28;97167;-50
2022/11/12 00:25:15;;;;;;;0.93;0.70;;;16.00;99.90;;;16.90;54.97;102753.44;4910855;28;99970;-51
2022/11/12 00:27:41;;;;;;;1.30;0.63;;;16.00;99.90;;;16.85;55.04;102752.69;4911805;28;97025;-52
2022/11/12 00:30:07;;;;;;;2.73;0.73;;;15.90;99.90;;;16.86;54.87;102754.44;4913402;28;109411;-48
2022/11/12 00:32:37;;;;;;;0.80;0.70;;;15.90;99.90;;;16.84;55.00;102753.63;4907921;28;97391;-52
2022/11/12 00:35:05;;;;;;;0.70;0.60;;;15.90;99.90;;;16.83;55.03;102746.53;4911438;28;99334;-49
2022/11/12 00:37:30;;;;;;;0.47;0.30;;;15.90;99.90;;;16.85;55.12;102757.16;4890970;28;98372;-54
2022/11/12 00:39:56;;;;;;;1.20;0.73;;;15.90;99.90;;;16.85;55.20;102760.69;4912396;28;97720;-50
2022/11/12 00:42:22;;;;;;;1.13;0.87;;;15.90;99.90;;;16.86;55.00;102757.09;4912446;28;98116;-55
2022/11/12 00:44:48;;;;;;;1.10;0.80;;;16.00;99.90;;;16.87;54.75;102761.53;4891305;28;97528;-53
2022/11/12 00:47:15;;;;;;;2.10;1.00;;;16.00;99.90;;;16.85;54.82;102774.03;4910824;28;97088;-55
2022/11/12 00:49:41;;;;;;;1.80;0.73;;;15.90;99.90;;;16.82;55.02;102768.78;4907654;28;98799;-54
2022/11/12 00:52:07;;;;;;;1.60;0.80;;;15.90;99.90;;;16.80;55.22;102767.09;4913517;28;111548;-50
2022/11/12 00:54:32;;;;;;;1.07;0.77;;;15.80;99.90;;;16.78;55.06;102766.22;4913225;28;97260;-54
2022/11/12 00:56:59;;;;;;;0.87;0.50;;;15.80;99.90;;;16.81;55.17;102767.03;4907984;28;108392;-53
2022/11/12 00:59:25;;;;;;;1.27;0.63;;;15.90;99.90;;;16.82;54.95;102768.78;4890571;28;97719;-53
2022/11/12 01:01:51;;;;;;;1.33;0.77;;;15.90;99.90;;;16.82;54.93;102763.44;4908325;28;98322;-52
2022/11/12 01:04:16;;;;;;;0.90;0.80;;;15.90;99.90;;;16.86;54.77;102775.78;4908177;28;97225;-54
2022/11/12 01:06:42;;;;;;;1.67;1.07;;;16.00;99.90;;;16.89;54.74;102773.00;4888952;28;99794;-54
2022/11/12 01:09:08;;;;;;;1.13;1.03;;;16.10;99.90;;;16.87;54.94;102766.84;4913409;28;120077;-49
2022/11/12 01:11:35;;;;;;;1.30;0.90;;;16.00;99.90;;;16.90;54.98;102765.88;4905961;28;103303;-49
2022/11/12 01:14:04;;;;;;;1.00;0.90;;;16.10;99.90;;;16.97;54.59;102771.94;4913114;28;97418;-50
2022/11/12 01:16:36;;;;;;;0.87;0.70;;;16.20;99.90;;;17.00;54.52;102766.50;4913036;28;97915;-51
2022/11/12 01:19:04;;;;;;;0.80;0.70;;;16.20;99.90;;;16.98;54.51;102768.34;4911754;28;101751;-54
2022/11/12 01:21:33;;;;;;;0.40;0.40;;;16.10;99.90;;;16.97;54.33;102771.94;4897086;28;99673;-53
2022/11/12 01:24:00;;;;;;;1.30;0.70;;;16.10;99.90;;;16.94;54.50;102773.78;4894271;28;97091;-52
2022/11/12 01:26:29;;;;;;;0.97;0.70;;;16.00;99.90;;;16.92;54.47;102775.63;4903618;28;97526;-52
2022/11/12 01:28:56;;;;;;;0.97;0.60;;;16.00;99.90;;;16.89;54.74;102774.81;4902585;28;98398;-52
2022/11/12 01:31:27;;;;;;;0.47;0.37;;;15.90;99.90;;;16.83;54.78;102765.19;4911399;28;96928;-52
2022/11/12 01:34:00;;;;;;;0.73;0.57;;;15.80;99.90;;;16.77;55.13;102770.69;4890462;28;97036;-54
2022/11/12 01:36:29;;;;;;;2.13;0.73;;;15.70;99.90;;;16.75;55.08;102772.53;4912083;28;100367;-53
2022/11/12 01:38:55;;;;;;;0.70;0.70;;;15.70;99.90;;;16.69;55.19;102774.50;4904495;28;97265;-53
2022/11/12 01:41:25;;;;;;;1.03;0.70;;;15.60;99.90;;;16.67;55.34;102774.56;4902721;28;98983;-50
2022/11/12 01:44:19;;;;;;;0.80;0.50;;;15.60;99.90;;;16.63;55.34;102772.81;4892645;28;97652;-53
2022/11/12 01:46:57;;;;;;;0.90;0.70;;;15.50;99.90;;;16.62;55.27;102771.09;4911707;28;97908;-48
2022/11/12 01:49:44;;;;;;;1.07;0.80;;;15.60;99.90;;;16.63;55.12;102767.50;4923693;28;97167;-51
2022/11/12 01:52:36;;;;;;;1.00;0.70;;;15.70;99.90;;;16.66;55.32;102767.44;4922411;28;101855;-51
2022/11/12 01:55:10;;;;;;;2.03;0.90;;;15.70;99.90;;;16.66;55.21;102762.13;4919819;28;97242;-49
2022/11/12 01:57:41;;;;;;;0.87;0.43;;;15.70;99.90;;;16.65;55.44;102765.69;4919524;28;97040;-52
2022/11/12 02:00:11;;;;;;;1.03;0.53;;;15.70;99.90;;;16.68;54.93;102760.31;4912559;28;98280;-50
2022/11/12 02:02:37;;;;;;;0.90;0.63;;;15.80;99.90;;;16.73;55.05;102762.81;4899373;28;97780;-50
2022/11/12 02:05:09;;;;;;;0.73;0.60;;;15.90;99.90;;;16.80;54.59;102759.97;4932195;28;96883;-51
2022/11/12 02:07:38;;;;;;;0.60;0.47;;;16.00;99.90;;;16.82;54.72;102758.13;4898369;28;97332;-50
2022/11/12 02:10:07;;;;;;;1.73;0.70;;;16.10;99.90;;;16.79;54.34;102757.34;4914047;28;101098;-51
2022/11/12 02:15:17;;;;;;;1.90;0.60;;;15.90;99.90;;;16.77;54.37;102765.34;4931599;28;97309;-52
2022/11/12 02:17:43;;;;;;;0.87;0.70;;;15.90;99.90;;;16.76;54.45;102760.94;4919973;28;117656;-50
2022/11/12 02:20:11;;;;;;;1.40;0.83;;;15.90;99.90;;;16.73;54.71;102758.38;4900716;28;99086;-53
2022/11/12 02:22:37;;;;;;;1.20;1.10;;;15.80;99.90;;;16.69;54.85;102761.19;4905955;28;97621;-58
2022/11/12 02:25:03;;;;;;;0.60;0.43;;;15.70;99.90;;;16.68;54.67;102749.66;4911389;28;116775;-50
2022/11/12 02:27:29;;;;;;;0.83;0.50;;;15.70;99.90;;;16.66;54.67;102757.66;4930496;28;96856;-49
2022/11/12 02:29:55;;;;;;;0.90;0.67;;;15.70;99.90;;;16.66;54.85;102757.66;4902820;28;117156;-57
2022/11/12 02:32:21;;;;;;;0.80;0.67;;;15.70;99.90;;;16.69;54.53;102754.06;4920986;28;105094;-54
2022/11/12 02:34:46;;;;;;;1.60;1.00;;;15.80;99.90;;;16.69;54.56;102761.19;4921561;28;102680;-49
2022/11/12 02:37:12;;;;;;;0.90;0.80;;;15.70;99.90;;;16.71;54.36;102765.53;4928098;28;97599;-53
2022/11/12 02:39:38;;;;;;;0.80;0.50;;;15.80;99.90;;;16.73;54.49;102769.03;4922377;28;107525;-59
2022/11/12 02:42:04;;;;;;;0.67;0.40;;;15.90;99.90;;;16.74;54.21;102769.91;4918259;28;101614;-52
2022/11/12 02:44:30;;;;;;;0.93;0.70;;;15.90;99.90;;;16.69;54.15;102771.84;4921929;28;97427;-53
2022/11/12 02:46:56;;;;;;;1.13;0.80;;;15.80;99.90;;;16.62;55.01;102763.09;4917920;28;104731;-51
2022/11/12 02:49:22;;;;;;;0.87;0.60;;;15.60;99.90;;;16.57;55.16;102762.34;4915842;28;97752;-56
2022/11/12 02:51:47;;;;;;;1.10;0.50;;;15.50;99.90;;;16.57;55.17;102762.34;4910047;28;110321;-51
2022/11/12 02:54:13;;;;;;;0.53;0.30;;;15.50;99.90;;;16.56;55.10;102766.81;4924832;28;100316;-53
2022/11/12 02:56:39;;;;;;;2.23;0.53;;;15.50;99.90;;;16.58;55.46;102764.09;4924408;28;101213;-59
2022/11/12 02:59:04;;;;;;;0.70;0.70;;;15.60;99.90;;;16.64;55.02;102758.63;4927391;28;116783;-54
2022/11/12 03:01:30;;;;;;;0.60;0.60;;;15.70;99.90;;;16.68;55.02;102754.97;4922330;28;110212;-55
2022/11/12 03:03:56;;;;;;;0.60;0.60;;;15.80;99.90;;;16.72;54.75;102755.75;4933781;28;99916;-48
2022/11/12 03:06:22;;;;;;;0.90;0.70;;;15.80;99.90;;;16.72;54.63;102761.97;4925504;28;101328;-50
2022/11/12 03:08:47;;;;;;;0.87;0.43;;;15.80;99.90;;;16.74;54.79;102760.13;4929514;28;98206;-49
2022/11/12 03:11:15;;;;;;;0.60;0.40;;;15.90;99.90;;;16.76;54.85;102763.63;4928462;28;96913;-50
2022/11/12 03:13:42;;;;;;;0.70;0.40;;;15.90;99.90;;;16.76;54.62;102768.06;4928627;28;96949;-55
2022/11/12 03:16:08;;;;;;;0.73;0.60;;;15.80;99.90;;;16.73;54.45;102766.38;4937650;28;97422;-55
2022/11/12 03:18:34;;;;;;;1.07;0.70;;;15.80;99.90;;;16.73;54.66;102763.69;4928557;28;97537;-47
2022/11/12 03:21:00;;;;;;;0.83;0.33;;;15.80;99.90;;;16.71;54.79;102754.00;4924083;28;96802;-50
2022/11/12 03:23:27;;;;;;;1.10;0.67;;;15.70;99.90;;;16.65;54.72;102760.38;4922675;28;96672;-53
2022/11/12 03:25:52;;;;;;;1.10;0.47;;;15.60;99.90;;;16.64;54.83;102754.16;4931000;28;97872;-53
2022/11/12 03:28:18;;;;;;;0.40;0.37;;;15.60;99.90;;;16.67;54.87;102747.91;4909335;28;115864;-52
2022/11/12 03:30:45;;;;;;;0.73;0.57;;;15.70;99.90;;;16.73;54.62;102747.72;4925780;28;97834;-49
2022/11/12 03:33:13;;;;;;;1.63;0.70;;;15.90;99.90;;;16.83;54.29;102746.53;4911226;28;98544;-52
2022/11/12 03:35:39;;;;;;;1.23;0.60;;;16.10;99.90;;;16.89;54.18;102741.03;4925784;28;97131;-55
2022/11/12 03:38:06;;;;;;;1.13;0.60;;;16.20;99.90;;;16.89;53.92;102743.69;4926658;28;97808;-49
2022/11/12 03:40:32;;;;;;;0.70;0.60;;;16.20;99.90;;;16.91;53.94;102736.50;4915353;28;97815;-55
2022/11/12 03:42:58;;;;;;;1.50;0.70;;;16.10;99.90;;;16.93;53.83;102734.69;4931350;28;97736;-52
2022/11/12 03:45:26;;;;;;;0.50;0.50;;;16.20;99.90;;;16.95;53.77;102738.19;4924634;28;113980;-51
2022/11/12 03:47:55;;;;;;;0.70;0.53;;;16.20;99.90;;;16.99;53.89;102727.44;4927245;28;98331;-50
2022/11/12 03:50:26;;;;;;;0.87;0.53;;;16.20;99.90;;;16.99;53.88;102730.09;4930340;28;97455;-50
2022/11/12 03:52:56;;;;;;;1.57;0.50;;;16.20;99.90;;;16.95;53.57;102738.19;4919568;28;98506;-54
2022/11/12 03:55:26;;;;;;;1.10;0.83;;;16.10;99.90;;;16.90;53.78;102728.56;4928144;28;97314;-54
2022/11/12 03:57:53;;;;;;;1.27;0.80;;;16.00;99.90;;;16.85;53.86;102719.84;4916375;28;97825;-51
2022/11/12 04:00:21;;;;;;;0.60;0.60;;;15.90;99.90;;;16.77;54.17;102722.72;4933047;28;96613;-56
2022/11/12 04:02:47;;;;;;;1.13;0.70;;;15.70;99.90;;;16.72;54.37;102718.44;4923702;28;97841;-51
2022/11/12 04:10:59;;;;;;;0.80;0.60;;;15.60;99.90;;;16.63;54.61;102724.88;4913650;28;97736;-56
2022/11/12 04:13:28;;;;;;;0.70;0.43;;;15.70;99.90;;;16.65;54.72;102728.38;4934136;28;96635;-56
2022/11/12 04:21:54;;;;;;;0.40;0.30;;;15.70;99.90;;;16.62;54.73;102723.13;4927036;28;101776;-56
2022/11/12 04:27:32;;;;;;;1.07;0.67;;;15.70;99.90;;;16.66;54.27;102714.16;4924081;28;97134;-56
2022/11/12 04:32:54;;;;;;;0.70;0.50;;;15.90;99.90;;;16.73;54.50;102715.72;4929427;28;96911;-54
2022/11/12 04:35:22;;;;;;;0.43;0.43;;;15.90;99.90;;;16.77;54.30;102722.72;4928095;28;103785;-57
2022/11/12 04:37:48;;;;;;;0.87;0.50;;;16.00;99.90;;;16.80;54.28;102719.97;4924749;28;97166;-52
2022/11/12 04:45:52;;;;;;;0.90;0.50;;;15.80;99.90;;;16.76;54.09;102715.63;4933991;28;96785;-53
2022/11/12 04:48:19;;;;;;;1.00;0.60;;;15.90;99.90;;;16.90;53.95;102709.91;4912071;28;97024;-55
2022/11/12 04:50:49;;;;;;;0.80;0.53;;;16.20;99.90;;;17.03;53.31;102702.41;4934818;28;97622;-57
2022/11/12 04:53:15;;;;;;;0.90;0.60;;;16.50;99.90;;;17.09;53.40;102699.59;4901655;28;102329;-56
2022/11/12 04:55:41;;;;;;;0.67;0.40;;;16.60;99.90;;;17.18;52.99;102707.28;4928605;28;97670;-53
2022/11/12 04:58:07;;;;;;;0.70;0.60;;;16.70;99.90;;;17.20;52.78;102705.44;4927690;28;104257;-52
2022/11/12 05:00:33;;;;;;;1.47;1.07;;;16.60;99.90;;;17.19;52.82;102701.88;4932071;28;110940;-54
2022/11/12 05:02:58;;;;;;;2.27;0.90;;;16.60;99.90;;;17.22;52.69;102704.50;4927100;28;97379;-50
2022/11/12 05:05:24;;;;;;;0.90;0.60;;;16.60;99.90;;;17.22;52.87;102692.94;4933851;28;106444;-55
2022/11/12 05:07:50;;;;;;;0.87;0.73;;;16.70;99.90;;;17.22;52.70;102692.94;4918058;28;97574;-55
2022/11/12 05:10:16;;;;;;;1.27;0.80;;;16.60;99.90;;;17.26;52.43;102683.91;4930849;28;97445;-54
2022/11/12 05:12:42;;;;;;;0.50;0.43;;;16.60;99.90;;;17.39;52.25;102673.75;4924953;28;101512;-54
2022/11/12 05:15:10;;;;;;;1.43;0.77;;;16.90;99.90;;;17.41;51.94;102678.09;4927816;28;97117;-53
2022/11/12 05:17:41;;;;;;;0.73;0.60;;;17.00;99.90;;;17.38;51.90;102688.00;4932182;28;97216;-52
2022/11/12 05:20:08;;;;;;;1.37;0.70;;;16.90;99.90;;;17.27;52.21;102685.66;4925322;28;97890;-55
2022/11/12 05:22:34;;;;;;;1.43;0.70;;;16.60;99.90;;;17.15;52.32;102691.38;4934710;28;97952;-54
2022/11/12 05:24:59;;;;;;;1.20;0.60;;;16.30;99.90;;;17.05;53.02;102684.56;4920979;28;97158;-55
2022/11/12 05:27:25;;;;;;;0.80;0.80;;;16.20;99.90;;;16.97;53.08;102684.81;4917774;28;102191;-55
2022/11/12 05:29:51;;;;;;;1.53;0.70;;;16.00;99.90;;;16.89;53.49;102685.03;4916977;28;97620;-51
2022/11/12 05:32:17;;;;;;;1.70;0.73;;;16.00;99.90;;;16.87;53.27;102678.88;4907317;28;109467;-56
2022/11/12 05:34:43;;;;;;;1.13;0.60;;;16.00;99.90;;;16.86;53.35;102669.16;4927215;28;97190;-56
2022/11/12 05:37:12;;;;;;;1.23;0.70;;;16.00;99.90;;;16.83;53.43;102674.56;4922393;28;97156;-50
2022/11/12 05:39:37;;;;;;;0.97;0.60;;;16.00;99.90;;;16.84;53.70;102676.31;4917263;28;99458;-53
2022/11/12 05:42:04;;;;;;;0.80;0.60;;;16.00;99.90;;;16.83;53.77;102674.56;4929088;28;107623;-51
2022/11/12 05:44:29;;;;;;;0.73;0.60;;;16.00;99.90;;;16.82;53.51;102671.97;4926722;28;97474;-53
2022/11/12 05:46:55;;;;;;;0.80;0.67;;;16.00;99.90;;;16.81;53.72;102671.09;4916251;28;96866;-57
2022/11/12 05:49:21;;;;;;;0.53;0.30;;;16.00;99.90;;;16.81;53.50;102667.56;4930363;28;97379;-55
2022/11/12 05:51:48;;;;;;;0.40;0.40;;;16.00;99.90;;;16.81;53.55;102671.09;4931365;28;97040;-51
2022/11/12 05:54:14;;;;;;;1.70;0.80;;;16.00;99.90;;;16.83;53.68;102674.56;4930374;28;98279;-54
2022/11/12 05:56:40;;;;;;;1.37;0.73;;;16.10;99.90;;;16.83;53.38;102674.56;4926737;28;97830;-55
2022/11/12 05:59:08;;;;;;;1.30;0.73;;;16.10;99.90;;;16.88;53.80;102675.31;4924377;28;97408;-58
2022/11/12 06:01:42;;;;;;;1.40;0.60;;;16.10;99.90;;;16.99;53.21;102668.78;4926798;28;97065;-53
2022/11/12 06:04:12;;;;;;;0.80;0.67;;;16.40;99.90;;;17.09;52.78;102675.59;4927592;28;96950;-54
2022/11/12 06:06:39;;;;;;;0.67;0.60;;;16.60;99.90;;;17.18;52.85;102669.94;4929643;28;97581;-56
2022/11/12 06:09:06;;;;;;;0.63;0.40;;;16.70;99.90;;;17.27;52.14;102669.66;4918116;28;96905;-50
2022/11/12 06:11:33;;;;;;;1.30;0.60;;;16.80;99.90;;;17.35;52.16;102664.94;4925184;28;97425;-50
2022/11/12 06:13:59;;;;;;;2.10;0.67;;;17.00;99.90;;;17.43;51.79;102670.03;4926563;28;97309;-49
2022/11/12 06:16:25;;;;;;;0.80;0.70;;;17.10;99.90;;;17.51;51.30;102676.88;4923401;28;97086;-53
2022/11/12 06:18:50;;;;;;;1.30;0.67;;;17.20;99.90;;;17.53;51.24;102677.69;4920501;28;97599;-53
2022/11/12 06:21:20;;;;;;;0.73;0.50;;;17.20;99.90;;;17.46;51.57;102681.47;4918902;28;126968;-53
2022/11/12 06:23:52;;;;;;;0.77;0.60;;;17.00;99.90;;;17.42;51.74;102678.97;4928041;28;96804;-54
2022/11/12 06:26:19;;;;;;;1.00;0.60;;;16.80;99.90;;;17.40;51.77;102681.69;4916619;28;97927;-54
2022/11/12 06:31:39;;;;;;;0.50;0.50;;;16.70;99.90;;;17.34;51.80;102687.19;5627020;22;98134;-55
2022/11/12 06:34:05;;;;;;;0.97;0.70;;;16.60;99.90;;;17.29;51.80;102694.47;4944727;28;99340;-51
2022/11/12 06:36:31;;;;;;;0.50;0.50;;;16.60;99.90;;;17.28;52.21;102703.41;4945404;28;97229;-52
2022/11/12 06:38:57;;;;;;;1.60;0.70;;;16.60;99.90;;;17.28;52.54;102714.09;4942467;28;97337;-52
2022/11/12 06:41:23;;;;;;;1.03;0.47;;;16.60;99.90;;;17.31;52.36;102697.97;4922038;28;97329;-52
2022/11/12 06:43:48;;;;;;;0.90;0.70;;;16.70;99.90;;;17.38;52.17;102701.34;4869412;28;103422;-53
2022/11/12 06:46:16;;;;;;;0.97;0.60;;;16.90;99.90;;;17.47;51.78;102701.91;4741581;29;97914;-48
2022/11/12 06:48:41;;;;;;;1.43;0.80;;;17.10;99.90;;;17.50;51.42;102701.81;4665232;29;98401;-54
2022/11/12 06:51:19;;;;;;;1.15;0.70;;;17.10;99.90;;;17.51;51.50;102710.69;4473538;30;1182334;-53
2022/11/12 06:53:46;;;;;;;1.03;0.60;;;17.10;99.90;;;17.49;51.64;102715.19;4466856;30;98223;-56
2022/11/12 06:56:13;;;;;;;0.77;0.40;;;17.00;99.90;;;17.50;51.45;102715.16;4432842;31;97722;-54
2022/11/12 06:58:39;;;;;;;1.80;0.50;;;17.00;99.90;;;17.54;51.59;102729.28;4457664;31;98320;-49
2022/11/12 07:01:14;;;;;;;0.90;0.60;;;17.10;99.90;;;17.51;51.49;102724.91;4434878;31;99771;-49
2022/11/12 07:03:41;;;;;;;2.57;0.70;;;17.00;99.90;;;17.49;51.36;102725.84;4444195;31;97539;-52
2022/11/12 07:06:10;;;;;;;0.50;0.50;;;17.00;99.90;;;17.47;51.78;102720.56;4440009;31;97471;-51
2022/11/12 07:08:37;;;;;;;1.30;0.80;;;17.00;99.90;;;17.45;51.77;102732.22;4452122;31;98123;-54
2022/11/12 07:11:04;;;;;;;0.60;0.60;;;16.90;99.90;;;17.40;51.47;102729.72;4434392;31;101138;-58
2022/11/12 07:13:33;;;;;;;1.17;0.90;;;16.80;99.90;;;17.35;51.84;102734.28;4441365;31;97108;-54
2022/11/12 07:16:00;;;;;;;1.23;0.70;;;16.70;99.90;;;17.29;51.85;102734.50;4463277;31;97315;-54
2022/11/12 07:18:27;;;;;;;1.20;0.67;;;16.60;99.90;;;17.20;52.33;102732.09;4442091;31;97566;-58
2022/11/12 07:21:01;;;;;;;0.70;0.57;;;16.40;99.90;;;17.11;52.27;102732.41;4459835;31;96985;-55
2022/11/12 07:23:29;;;;;;;0.70;0.63;;;16.30;99.90;;;17.04;52.73;102741.50;4434176;31;97986;-53
2022/11/12 07:26:14;;;;;;;2.30;1.00;;;16.20;99.90;;;16.99;52.87;102736.31;4427211;31;97647;-50
2022/11/12 07:28:40;;;;;;;1.17;0.67;;;16.20;99.90;;;16.97;52.93;102739.94;4447196;31;101726;-54
2022/11/12 07:31:12;;;;;;;3.13;0.60;;;16.20;99.90;;;16.98;53.03;102744.34;4413162;31;100262;-53
2022/11/12 07:33:38;;;;;;;0.53;0.43;;;16.20;99.90;;;17.01;52.75;102737.13;4458759;31;97605;-52
2022/11/12 07:36:08;;;;;;;0.47;0.47;;;16.30;99.90;;;17.06;52.70;102739.66;4462363;31;98300;-56
2022/11/12 07:38:37;;;;;;;0.90;0.63;;;16.40;99.90;;;17.17;52.19;102732.19;4439206;31;96923;-55
2022/11/12 07:41:11;;;;;;;0.50;0.50;;;16.60;99.90;;;17.26;51.79;102745.28;4455693;31;97763;-53
2022/11/12 07:43:38;;;;;;;0.57;0.40;;;16.80;99.90;;;17.34;51.57;102735.22;4439374;31;98329;-54
2022/11/12 07:46:29;;;;;;;2.13;1.00;;;17.00;99.90;;;17.40;51.44;102745.72;4430965;31;98835;-54
2022/11/12 07:48:57;;;;;;;1.87;1.00;;;17.10;99.90;;;17.38;51.39;102744.91;4427694;30;125495;-48
2022/11/12 07:51:26;;;;;;;1.40;0.80;;;17.00;99.90;;;17.39;51.16;102743.97;4511597;30;98054;-52
2022/11/12 07:53:54;;;;;;;0.67;0.57;;;16.90;99.90;;;17.41;51.60;102747.47;4597273;30;97397;-52
2022/11/12 07:56:23;;;;;;;1.20;0.60;;;17.00;99.90;;;17.41;51.53;102747.47;4595837;30;97365;-52
2022/11/12 07:58:52;;;;;;;1.03;0.63;;;17.00;99.90;;;17.44;51.61;102741.16;4576197;30;98408;-56
2022/11/12 08:02:03;;;;;;;1.17;0.67;;;17.00;99.90;;;17.43;51.54;102740.28;4580724;30;97545;-50
2022/11/12 08:04:29;;;;;;;1.77;0.60;;;17.00;99.90;;;17.34;51.55;102743.22;4576388;30;98366;-51
2022/11/12 08:06:55;;;;;;;0.43;0.43;;;16.70;99.90;;;17.28;52.08;102746.09;4577032;30;98059;-54
2022/11/12 08:09:21;;;;;;;0.67;0.60;;;16.60;99.90;;;17.25;52.01;102740.84;4569539;30;99843;-54
2022/11/12 08:11:47;;;;;;;1.10;0.80;;;16.60;99.90;;;17.25;51.93;102746.19;4590219;30;99208;-51
2022/11/12 08:14:13;;;;;;;0.63;0.43;;;16.60;99.90;;;17.29;51.96;102747.84;4583694;30;99349;-49
2022/11/12 08:16:40;;;;;;;1.10;0.50;;;16.70;99.90;;;17.40;51.79;102737.72;4603067;30;106417;-50
2022/11/12 08:19:05;;;;;;;0.70;0.47;;;16.90;99.90;;;17.45;51.67;102748.22;4583483;30;97648;-53
2022/11/12 08:21:31;;;;;;;1.17;0.80;;;17.00;99.90;;;17.52;51.39;102740.00;4575802;30;99422;-52
2022/11/12 08:23:57;;;;;;;0.57;0.40;;;17.10;99.90;;;17.62;51.12;102745.03;4527108;30;98132;-52
2022/11/12 08:26:25;;;;;;;1.33;0.80;;;17.30;99.90;;;17.65;50.76;102744.91;4552829;30;97350;-52
2022/11/12 08:28:51;;;;;;;2.10;0.93;;;17.30;99.90;;;17.64;50.94;102748.50;4559854;30;100049;-54
2022/11/12 08:31:20;;;;;;;2.80;0.70;;;17.30;99.90;;;17.58;50.71;102748.72;4546544;30;97888;-50
2022/11/12 08:33:46;;;;;;;1.23;0.50;;;17.10;99.90;;;17.55;51.03;102745.22;4561971;30;97793;-50
2022/11/12 08:36:14;;;;;;;0.93;0.83;;;17.00;99.90;;;17.53;51.00;102744.41;4554073;30;97678;-50
2022/11/12 08:38:40;;;;;;;1.30;0.80;;;17.00;99.90;;;17.48;51.21;102738.31;4547925;30;97618;-53
2022/11/12 08:41:10;;;;;;;1.67;1.30;;;16.90;99.90;;;17.35;50.91;102742.28;4559373;30;97379;-52
2022/11/12 08:43:37;;;;;;;2.07;1.20;;;16.70;99.90;;;17.28;51.73;102750.56;4558533;30;97935;-51
2022/11/12 08:46:03;;;;;;;2.23;1.00;;;16.50;99.90;;;17.14;51.85;102741.16;4541659;30;98489;-51
2022/11/12 08:48:31;;;;;;;1.37;0.83;;;16.30;99.90;;;17.07;51.87;102742.28;4551607;30;98075;-53
2022/11/12 08:50:57;;;;;;;0.37;0.37;;;16.20;99.90;;;17.04;52.47;102737.03;4659571;29;97849;-51
2022/11/12 08:53:24;;;;;;;0.97;0.70;;;16.20;99.90;;;17.08;52.72;102738.72;4726921;29;98777;-53
2022/11/12 08:55:55;;;;;;;0.63;0.50;;;16.30;99.90;;;17.23;52.28;102742.69;4707376;29;105913;-50
2022/11/12 08:58:21;;;;;;;1.07;0.83;;;16.60;99.90;;;17.35;51.82;102747.63;4720722;29;97539;-53
2022/11/12 09:00:49;;;;;;;1.10;0.73;;;16.90;99.90;;;17.34;51.68;102745.00;4703934;29;96971;-52
2022/11/12 09:03:19;;;;;;;3.00;1.40;;;16.90;99.90;;;17.27;50.03;102744.34;4715034;29;102434;-53
2022/11/12 09:05:46;;;;;;;1.50;1.03;;;16.60;99.90;;;17.19;51.19;102746.34;4721865;29;99504;-52
2022/11/12 09:08:16;;;;;;;0.53;0.40;;;16.50;99.90;;;17.18;52.32;102747.28;4698631;29;101022;-53
2022/11/12 09:10:42;;;;;;;1.50;1.00;;;16.40;99.90;;;17.21;51.84;102749.84;4701402;29;97411;-50
2022/11/12 09:13:08;;;;;;;1.50;0.80;;;16.60;99.90;;;17.26;52.17;102758.59;4715888;29;97422;-52
2022/11/12 09:15:46;;;;;;;0.63;0.47;;;16.60;99.90;;;17.34;52.07;102758.34;4717111;29;97898;-48
2022/11/12 09:18:17;;;;;;;1.10;0.43;;;16.80;99.90;;;17.40;51.51;102751.06;4717087;29;99516;-52
2022/11/12 09:20:44;;;;;;;1.70;1.13;;;16.90;99.90;;;17.39;51.30;102759.09;4701731;29;97772;-54
2022/11/12 09:23:13;;;;;;;1.40;0.90;;;16.80;99.90;;;17.36;51.69;102757.41;4717270;29;97899;-52
2022/11/12 09:25:41;;;;;;;1.13;0.87;;;16.80;99.90;;;17.27;51.21;102765.69;4704031;29;100311;-52
2022/11/12 09:28:18;;;;;;;0.80;0.50;;;16.60;99.90;;;17.23;51.93;102764.03;4715295;29;98337;-50
2022/11/12 09:30:48;;;;;;;0.60;0.60;;;16.50;99.90;;;17.31;52.04;102764.66;4697811;29;98013;-52
2022/11/12 09:33:17;;;;;;;0.63;0.63;;;16.60;99.90;;;17.30;51.74;102765.59;4712735;29;99280;-49
2022/11/12 09:35:44;;;;;;;1.27;0.90;;;16.70;99.90;;;17.33;49.16;102754.81;4717276;29;97514;-52
2022/11/12 09:38:10;;;;;;;0.83;0.70;;;16.80;99.90;;;17.46;51.25;102761.50;4695358;29;98004;-50
2022/11/12 09:40:51;;;;;;;1.50;0.87;;;17.00;99.90;;;17.56;50.71;102754.09;4718611;29;98110;-53
2022/11/12 09:43:30;;;;;;;2.37;1.10;;;17.20;99.90;;;17.45;51.12;102754.44;4716683;29;99515;-51
2022/11/12 09:46:03;;;;;;;1.10;0.80;;;17.00;99.90;;;17.48;51.78;102743.66;4700552;29;97634;-51
2022/11/12 09:48:39;;;;;;;1.40;0.70;;;17.00;99.90;;;17.42;48.31;102749.19;4713959;29;98928;-53
2022/11/12 09:51:47;;;;;;;1.23;0.93;;;16.90;99.90;;;17.24;51.49;102750.66;4779685;28;97851;-47
2022/11/12 09:54:28;;;;;;;1.07;0.53;;;16.90;99.90;;;17.38;52.65;102750.22;4839248;28;97477;-51
2022/11/12 09:56:54;;;;;;;0.30;0.30;;;16.90;99.90;;;17.58;51.69;102744.25;4847417;28;97505;-48
2022/11/12 09:59:22;;;;;;;1.40;0.97;;;17.30;99.90;;;17.70;51.32;102743.03;4839805;28;103625;-49
2022/11/12 10:02:22;;;;;;;2.67;0.67;;;17.50;99.90;;;17.95;50.92;102737.75;4842664;28;99445;-47
2022/11/12 10:05:25;;;;;;;1.93;0.73;;;17.80;99.90;;;18.11;50.11;102736.31;4836098;28;98332;-52
2022/11/12 10:07:50;;;;;;;0.80;0.80;;;18.10;99.90;;;18.18;49.94;102729.81;4848766;28;98109;-52
2022/11/12 10:10:43;;;;;;;0.57;0.50;;;18.10;99.90;;;18.25;49.75;102720.66;4841350;28;99181;-51
2022/11/12 10:13:30;;;;;;;0.63;0.40;;;18.20;99.90;;;18.11;50.11;102720.28;4833962;28;103819;-45
2022/11/12 10:16:54;;;;;;;0.93;0.73;;;18.20;99.90;;;18.38;48.85;102716.63;4850281;28;96879;-52
2022/11/12 10:19:39;;;;;;;1.40;0.80;;;18.40;99.90;;;18.39;48.56;102720.19;4830366;28;99694;-48
2022/11/12 10:22:32;;;;;;;2.27;0.70;;;18.40;99.90;;;18.36;47.06;102717.59;4853138;28;97839;-51
2022/11/12 10:25:18;;;;;;;1.90;0.93;;;18.30;99.90;;;18.18;48.50;102718.25;4844182;28;99747;-53
2022/11/12 10:27:45;;;;;;;1.10;0.77;;;18.00;99.90;;;18.20;47.71;102711.06;4849254;28;98323;-51
2022/11/12 10:30:20;;;;;;;0.93;0.60;;;18.00;99.90;;;18.28;48.92;102715.22;4837178;28;98586;-47
2022/11/12 10:32:48;;;;;;;1.47;0.60;;;18.10;99.90;;;18.34;48.60;102714.09;4854747;28;100574;-52
2022/11/12 10:35:19;;;;;;;0.83;0.63;;;18.30;99.90;;;18.45;48.70;102711.94;4841177;28;97953;-54
2022/11/12 10:37:53;;;;;;;0.93;0.40;;;18.40;99.90;;;18.50;48.21;102709.94;4881247;28;98291;-47
2022/11/12 10:40:37;;;;;;;1.33;0.60;;;18.40;99.90;;;18.51;48.55;102716.16;4870920;28;97797;-53
2022/11/12 10:43:15;;;;;;;0.80;0.70;;;18.40;99.90;;;18.56;48.08;102706.19;4865962;28;98621;-54
2022/11/12 10:45:42;;;;;;;2.30;0.60;;;18.50;99.90;;;18.60;48.23;102705.16;4846598;28;103563;-53
2022/11/12 10:48:32;;;;;;;1.57;0.50;;;18.60;99.90;;;18.67;48.22;102702.25;4759590;28;97853;-54